Terminal Aerodrome Forecast
Issued by NWS

Current Version | Previous Version | Text Only | Print | Product List | Glossary On
Versions: 1 2 3 4 5 6 7 8 9 10 11 12 13 14 15 16 17 18 19 20 21 22 23 24 25 26
000
FTUS41 KGYX 301727
TAFRKD
TAF
KRKD 301727Z 3018/3118 09007KT P6SM SCT005
     FM310000 19005KT 1SM -TSRA BR BKN005 BKN025CB
     FM310300 23005KT 1/2SM FG OVC002
     FM311300 27007KT P6SM SCT050
      AMD LTD TO CLD VIS AND WIND=

USA.gov is the U.S. government's official web portal to all federal, state and local government web resources and services.